createdAt,value
2023-01-29T00:02:43.002Z,100862.88
2023-01-29T00:05:45.235Z,100867.63
2023-01-29T00:08:47.509Z,100855.44
2023-01-29T00:11:49.798Z,100860.19
2023-01-29T00:14:52.076Z,100871.75
2023-01-29T00:17:54.555Z,100881.47
2023-01-29T00:20:57.353Z,100872.72
2023-01-29T00:24:00.302Z,100897.59
2023-01-29T00:27:02.669Z,100885.09
2023-01-29T00:30:16.481Z,100888.72
2023-01-29T00:33:19.346Z,100893.66
2023-01-29T00:36:22.507Z,100888.72
2023-01-29T00:39:31.391Z,100892.66
2023-01-29T00:42:57.328Z,100893.31
2023-01-29T00:45:59.977Z,100892.66
2023-01-29T00:49:02.472Z,100883.41
2023-01-29T00:52:24.172Z,100888.69
2023-01-29T00:55:26.615Z,100884.91
2023-01-29T00:58:34.277Z,100893.78
2023-01-29T01:01:55.400Z,100903.16
2023-01-29T01:04:57.722Z,100905.78
2023-01-29T01:08:00.191Z,100918.66
2023-01-29T01:11:05.957Z,100903.81
2023-01-29T01:14:08.622Z,100894.41
2023-01-29T01:17:10.948Z,100900.47
2023-01-29T01:20:13.469Z,100898.47
2023-01-29T01:23:16.069Z,100900.13
2023-01-29T01:26:18.893Z,100891.00
2023-01-29T01:29:21.173Z,100898.13
2023-01-29T01:32:23.738Z,100906.28
2023-01-29T01:35:26.157Z,100902.97
2023-01-29T01:38:28.476Z,100917.00
2023-01-29T01:41:30.978Z,100928.13
2023-01-29T01:44:54.078Z,100917.25
2023-01-29T01:47:59.380Z,100931.56
2023-01-29T01:51:06.589Z,100924.81
2023-01-29T01:54:28.387Z,100923.16
2023-01-29T01:57:31.869Z,100916.06
2023-01-29T02:00:34.359Z,100924.44
2023-01-29T02:04:03.398Z,100933.47
2023-01-29T02:07:26.870Z,100925.69
2023-01-29T02:10:31.899Z,100915.94
2023-01-29T02:13:34.239Z,100918.53
2023-01-29T02:16:37.203Z,100933.31
2023-01-29T02:19:59.722Z,100936.75
2023-01-29T02:23:37.227Z,100942.31
2023-01-29T02:26:48.931Z,100939.78
2023-01-29T02:30:06.618Z,100931.41
2023-01-29T02:33:41.229Z,100943.25
2023-01-29T02:36:43.470Z,100951.78
2023-01-29T02:39:53.403Z,100936.31
2023-01-29T02:43:26.704Z,100947.06
2023-01-29T02:46:39.941Z,100958.75
2023-01-29T02:49:50.415Z,100958.84
2023-01-29T02:53:00.124Z,100946.53
2023-01-29T02:56:08.709Z,100961.41
2023-01-29T02:59:23.791Z,100948.94
2023-01-29T03:02:45.336Z,100961.09
2023-01-29T03:06:20.516Z,100971.94
2023-01-29T03:09:29.970Z,100977.16
2023-01-29T03:12:34.234Z,100972.63
2023-01-29T03:15:47.041Z,100971.88
2023-01-29T03:19:16.762Z,100973.28
2023-01-29T03:22:22.420Z,100969.53
2023-01-29T03:25:46.059Z,100976.34
2023-01-29T03:29:07.639Z,100975.16
2023-01-29T03:32:11.106Z,100980.88
2023-01-29T03:35:21.260Z,100979.06
2023-01-29T03:38:29.600Z,100976.94
2023-01-29T03:41:39.018Z,100985.91
2023-01-29T03:45:09.284Z,100994.03
2023-01-29T03:48:18.619Z,100992.16
2023-01-29T03:51:43.585Z,100991.75
2023-01-29T03:54:54.657Z,100993.66
2023-01-29T03:58:09.632Z,100993.56
2023-01-29T04:01:27.782Z,100980.94
2023-01-29T04:04:34.888Z,100998.81
2023-01-29T04:07:40.140Z,100975.16
2023-01-29T04:10:43.333Z,100987.78
2023-01-29T04:13:46.606Z,100989.50
2023-01-29T04:16:54.336Z,100982.34
2023-01-29T04:20:05.614Z,100978.09
2023-01-29T04:23:23.861Z,100986.78
2023-01-29T04:26:38.311Z,100988.19
2023-01-29T04:29:48.369Z,100979.59
2023-01-29T04:33:04.621Z,100982.44
2023-01-29T04:36:24.535Z,100966.03
2023-01-29T04:39:48.532Z,100977.38
2023-01-29T04:43:06.965Z,100991.56
2023-01-29T04:46:17.685Z,100993.22
2023-01-29T04:49:46.164Z,100986.47
2023-01-29T04:53:06.463Z,100983.84
2023-01-29T04:56:17.716Z,100997.19
2023-01-29T04:59:26.280Z,100988.31
2023-01-29T05:02:29.474Z,100989.19
2023-01-29T05:05:32.009Z,100978.16
2023-01-29T05:08:35.364Z,100974.75
2023-01-29T05:11:37.760Z,100966.53
2023-01-29T05:14:42.127Z,100979.94
2023-01-29T05:17:44.542Z,100985.72
2023-01-29T05:20:47.196Z,100992.50
2023-01-29T05:24:11.505Z,100992.19
2023-01-29T05:27:48.275Z,100990.25
2023-01-29T05:30:53.125Z,100971.25
2023-01-29T05:33:55.963Z,100976.91
2023-01-29T05:36:58.241Z,100973.28
2023-01-29T05:40:00.533Z,100977.91
2023-01-29T05:43:02.913Z,100975.84
2023-01-29T05:46:05.611Z,100975.38
2023-01-29T05:49:07.922Z,100980.91
2023-01-29T05:52:10.191Z,100970.41
2023-01-29T05:55:12.580Z,100985.81
2023-01-29T05:58:14.969Z,100977.31
2023-01-29T06:01:19.915Z,100987.88
2023-01-29T06:04:22.212Z,100997.66
2023-01-29T06:07:24.543Z,100972.56
2023-01-29T06:10:26.844Z,100983.63
2023-01-29T06:13:29.179Z,100989.41
2023-01-29T06:16:31.514Z,100988.69
2023-01-29T06:19:33.841Z,101003.06
2023-01-29T06:22:36.162Z,101004.78
2023-01-29T06:25:38.464Z,100999.56
2023-01-29T06:28:41.033Z,101017.13
2023-01-29T06:31:43.398Z,101026.00
2023-01-29T06:34:47.325Z,101031.41
2023-01-29T06:37:51.041Z,101028.41
2023-01-29T06:40:53.558Z,101034.63
2023-01-29T06:43:55.904Z,101047.84
2023-01-29T06:46:58.178Z,101032.09
2023-01-29T06:50:00.812Z,101056.19
2023-01-29T06:53:03.023Z,101044.41
2023-01-29T06:56:06.469Z,101054.19
2023-01-29T06:59:08.741Z,101053.69
2023-01-29T07:02:11.250Z,101054.94
2023-01-29T07:05:13.548Z,101040.50
2023-01-29T07:08:15.818Z,101054.69
2023-01-29T07:11:19.055Z,101051.13
2023-01-29T07:14:21.320Z,101038.56
2023-01-29T07:17:23.600Z,101036.47
2023-01-29T07:20:30.651Z,101051.66
2023-01-29T07:23:34.879Z,101040.03
2023-01-29T07:26:37.190Z,101039.59
2023-01-29T07:29:39.464Z,101020.00
2023-01-29T07:32:42.208Z,101025.31
2023-01-29T07:35:44.634Z,101025.22
2023-01-29T07:38:50.826Z,101025.28
2023-01-29T07:41:53.100Z,101028.78
2023-01-29T07:44:58.287Z,101019.72
2023-01-29T07:48:00.692Z,101021.53
2023-01-29T07:51:03.239Z,101024.97
2023-01-29T07:54:05.622Z,101009.50
2023-01-29T07:57:07.865Z,101016.38
2023-01-29T08:00:11.834Z,101026.00
2023-01-29T08:03:18.563Z,101029.84
2023-01-29T08:06:20.883Z,101022.66
2023-01-29T08:09:23.113Z,101031.41
2023-01-29T08:12:25.509Z,101020.25
2023-01-29T08:15:28.858Z,101022.56
2023-01-29T08:18:33.919Z,101025.91
2023-01-29T08:21:36.222Z,101012.56
2023-01-29T08:24:53.298Z,101018.53
2023-01-29T08:27:57.980Z,101027.06
2023-01-29T08:31:00.431Z,101039.84
2023-01-29T08:34:02.853Z,101044.41
2023-01-29T08:37:05.174Z,101048.09
2023-01-29T08:40:09.600Z,101042.75
2023-01-29T08:43:13.295Z,101057.06
2023-01-29T08:46:15.658Z,101050.94
2023-01-29T08:49:17.976Z,101064.84
2023-01-29T08:52:20.204Z,101068.72
2023-01-29T08:55:22.478Z,101077.09
2023-01-29T08:58:24.806Z,101078.94
2023-01-29T09:01:27.082Z,101081.78
2023-01-29T09:04:29.408Z,101084.53
2023-01-29T09:07:31.689Z,101075.25
2023-01-29T09:10:34.559Z,101083.69
2023-01-29T09:13:36.815Z,101090.22
2023-01-29T09:16:39.143Z,101077.78
2023-01-29T09:19:41.429Z,101073.16
2023-01-29T09:22:44.126Z,101084.69
2023-01-29T09:25:46.813Z,101093.31
2023-01-29T09:28:49.209Z,101083.41
2023-01-29T09:31:51.637Z,101080.66
2023-01-29T09:34:53.955Z,101071.88
2023-01-29T09:37:56.972Z,101082.09
2023-01-29T09:41:26.687Z,101092.47
2023-01-29T09:44:44.159Z,101091.69
2023-01-29T09:47:48.832Z,101086.97
2023-01-29T09:50:55.136Z,101094.97
2023-01-29T09:54:23.539Z,101095.28
2023-01-29T09:57:51.617Z,101088.75
2023-01-29T10:01:17.861Z,101095.28
2023-01-29T10:04:32.483Z,101096.25
2023-01-29T10:07:40.674Z,101092.13
2023-01-29T10:10:56.011Z,101096.94
2023-01-29T10:13:58.225Z,101105.00
2023-01-29T10:17:38.210Z,101099.72
2023-01-29T10:21:01.844Z,101098.34
2023-01-29T10:24:13.299Z,101096.38
2023-01-29T10:27:16.893Z,101094.22
2023-01-29T10:30:31.242Z,101086.84
2023-01-29T10:33:49.152Z,101075.84
2023-01-29T10:36:57.314Z,101087.03
2023-01-29T10:40:00.393Z,101081.44
2023-01-29T10:43:02.662Z,101093.78
2023-01-29T10:46:15.826Z,101089.75
2023-01-29T10:49:41.317Z,101081.13
2023-01-29T10:52:58.834Z,101073.53
2023-01-29T10:56:10.813Z,101074.38
2023-01-29T10:59:40.067Z,101075.09
2023-01-29T11:02:48.430Z,101058.66
2023-01-29T11:06:13.014Z,101055.06
2023-01-29T11:12:41.755Z,101047.31
2023-01-29T11:15:44.142Z,101055.84
2023-01-29T11:19:04.649Z,101039.00
2023-01-29T11:22:12.831Z,101043.88
2023-01-29T11:25:20.065Z,101027.84
2023-01-29T11:28:40.679Z,101029.84
2023-01-29T11:31:43.057Z,101012.81
2023-01-29T11:35:02.288Z,101012.06
2023-01-29T11:38:16.849Z,101026.41
2023-01-29T11:41:22.494Z,101021.94
2023-01-29T11:44:32.916Z,101009.72
2023-01-29T11:47:35.189Z,100998.53
2023-01-29T11:50:37.507Z,100996.72
2023-01-29T11:53:45.896Z,100993.56
2023-01-29T11:56:48.412Z,100975.78
2023-01-29T11:59:51.984Z,100983.38
2023-01-29T12:02:57.860Z,100973.63
2023-01-29T12:06:06.987Z,100980.84
2023-01-29T12:09:17.488Z,100977.63
2023-01-29T12:12:33.687Z,100988.81
2023-01-29T12:15:40.353Z,100980.59
2023-01-29T12:18:46.897Z,100967.81
2023-01-29T12:21:52.375Z,100974.38
2023-01-29T12:25:09.865Z,100975.72
2023-01-29T12:28:36.670Z,100984.63
2023-01-29T12:32:16.570Z,100975.91
2023-01-29T12:35:28.775Z,100967.66
2023-01-29T12:38:31.076Z,100948.06
2023-01-29T12:41:41.206Z,100962.06
2023-01-29T12:44:47.929Z,100968.78
2023-01-29T12:48:00.920Z,100960.22
2023-01-29T12:51:17.737Z,100968.00
2023-01-29T12:54:26.710Z,100963.84
2023-01-29T12:57:38.638Z,100959.59
2023-01-29T13:00:44.042Z,100956.47
2023-01-29T13:03:57.470Z,100960.59
2023-01-29T13:07:12.191Z,100945.91
2023-01-29T13:10:19.170Z,100937.84
2023-01-29T13:13:36.283Z,100931.91
2023-01-29T13:16:42.646Z,100928.94
2023-01-29T13:19:48.336Z,100936.03
2023-01-29T13:22:52.078Z,100919.06
2023-01-29T13:25:54.622Z,100927.97
2023-01-29T13:28:58.004Z,100905.53
2023-01-29T13:32:03.150Z,100918.53
2023-01-29T13:35:13.336Z,100899.28
2023-01-29T13:38:42.275Z,100903.06
2023-01-29T13:41:44.727Z,100903.88
2023-01-29T13:44:56.211Z,100901.41
2023-01-29T13:48:18.122Z,100908.00
2023-01-29T13:51:22.167Z,100919.19
2023-01-29T13:54:25.867Z,100920.72
2023-01-29T13:57:53.991Z,100923.16
2023-01-29T14:01:00.368Z,100920.69
2023-01-29T14:04:21.753Z,100896.09
2023-01-29T14:07:45.687Z,100901.25
2023-01-29T14:11:30.727Z,100921.84
2023-01-29T14:15:21.291Z,100899.28
2023-01-29T14:18:28.655Z,100917.38
2023-01-29T14:21:35.345Z,100930.88
2023-01-29T14:24:38.852Z,100916.38
2023-01-29T14:27:47.490Z,100912.44
2023-01-29T14:30:50.453Z,100918.69
2023-01-29T14:33:53.087Z,100917.53
2023-01-29T14:36:58.078Z,100914.06
2023-01-29T14:40:12.754Z,100925.31
2023-01-29T14:43:22.499Z,100932.75
2023-01-29T14:46:33.759Z,100924.78
2023-01-29T14:49:50.081Z,100912.03
2023-01-29T14:52:54.095Z,100926.75
2023-01-29T14:55:59.142Z,100922.44
2023-01-29T14:59:21.170Z,100927.81
2023-01-29T15:02:33.858Z,100931.91
2023-01-29T15:05:37.772Z,100929.97
2023-01-29T15:08:44.376Z,100931.63
2023-01-29T15:12:06.061Z,100928.88
2023-01-29T15:15:33.270Z,100933.75
2023-01-29T15:18:43.407Z,100927.84
2023-01-29T15:22:20.914Z,100930.56
2023-01-29T15:25:23.504Z,100915.06
2023-01-29T15:28:26.976Z,100919.72
2023-01-29T15:31:29.609Z,100916.25
2023-01-29T15:34:32.146Z,100909.38
2023-01-29T15:37:35.440Z,100924.75
2023-01-29T15:40:37.909Z,100923.94
2023-01-29T15:43:44.087Z,100923.63
2023-01-29T15:46:51.721Z,100925.53
2023-01-29T15:49:55.360Z,100925.69
2023-01-29T15:52:58.973Z,100929.38
2023-01-29T15:56:01.956Z,100933.81
2023-01-29T15:59:09.693Z,100940.69
2023-01-29T16:02:30.333Z,100934.53
2023-01-29T16:05:33.180Z,100924.09
2023-01-29T16:08:35.783Z,100931.09
2023-01-29T16:11:38.094Z,100926.16
2023-01-29T16:14:40.934Z,100933.56
2023-01-29T16:17:44.998Z,100930.00
2023-01-29T16:20:51.992Z,100930.59
2023-01-29T16:24:09.769Z,100949.31
2023-01-29T16:27:14.459Z,100943.38
2023-01-29T16:30:17.868Z,100951.09
2023-01-29T16:33:21.478Z,100955.78
2023-01-29T16:36:25.870Z,100956.94
2023-01-29T16:39:32.688Z,100954.06
2023-01-29T16:42:36.072Z,100960.16
2023-01-29T16:45:38.392Z,100963.75
2023-01-29T16:48:40.769Z,100954.44
2023-01-29T16:51:43.095Z,100964.63
2023-01-29T16:54:45.441Z,100973.13
2023-01-29T16:57:56.994Z,100970.59
2023-01-29T17:01:06.864Z,100963.59
2023-01-29T17:04:16.472Z,100966.75
2023-01-29T17:07:21.464Z,100972.41
2023-01-29T17:10:24.216Z,100964.41
2023-01-29T17:13:41.716Z,100953.44
2023-01-29T17:16:51.284Z,100970.81
2023-01-29T17:19:53.572Z,100966.28
2023-01-29T17:22:55.898Z,100957.44
2023-01-29T17:25:59.748Z,100954.66
2023-01-29T17:29:02.122Z,100963.00
2023-01-29T17:32:04.691Z,100953.22
2023-01-29T17:35:07.407Z,100939.88
2023-01-29T17:38:25.014Z,100947.78
2023-01-29T17:41:30.451Z,100930.19
2023-01-29T17:44:32.807Z,100934.00
2023-01-29T17:47:35.114Z,100928.84
2023-01-29T17:50:38.645Z,100934.09
2023-01-29T17:53:45.931Z,100919.84
2023-01-29T17:56:49.373Z,100917.03
2023-01-29T17:59:51.666Z,100909.94
2023-01-29T18:02:54.346Z,100911.97
2023-01-29T18:05:56.702Z,100911.47
2023-01-29T18:08:59.039Z,100903.91
2023-01-29T18:12:01.329Z,100910.22
2023-01-29T18:15:03.768Z,100914.94
2023-01-29T18:18:06.624Z,100913.81
2023-01-29T18:21:08.984Z,100903.91
2023-01-29T18:24:11.305Z,100912.94
2023-01-29T18:27:13.575Z,100904.00
2023-01-29T18:30:16.222Z,100897.84
2023-01-29T18:33:18.870Z,100895.09
2023-01-29T18:36:21.151Z,100905.50
2023-01-29T18:39:23.537Z,100896.31
2023-01-29T18:42:25.855Z,100893.75
2023-01-29T18:45:28.843Z,100891.44
2023-01-29T18:48:31.168Z,100889.94
2023-01-29T18:51:33.495Z,100903.28
2023-01-29T18:54:35.765Z,100907.94
2023-01-29T18:58:25.289Z,100908.44
2023-01-29T19:01:07.149Z,100894.53
2023-01-29T19:04:09.520Z,100901.84
2023-01-29T19:07:13.797Z,100908.38
2023-01-29T19:10:17.014Z,100907.41
2023-01-29T19:13:19.285Z,100912.00
2023-01-29T19:16:21.650Z,100895.94
2023-01-29T19:19:24.036Z,100887.38
2023-01-29T19:22:26.292Z,100889.06
2023-01-29T19:25:28.679Z,100883.16
2023-01-29T19:28:31.018Z,100886.16
2023-01-29T19:31:33.580Z,100891.97
2023-01-29T19:34:35.971Z,100898.63
2023-01-29T19:37:38.313Z,100900.28
2023-01-29T19:40:40.588Z,100890.53
2023-01-29T19:43:43.148Z,100886.94
2023-01-29T19:46:46.930Z,100879.78
2023-01-29T19:49:49.344Z,100858.72
2023-01-29T19:52:53.352Z,100866.53
2023-01-29T19:56:13.689Z,100877.16
2023-01-29T19:59:18.948Z,100894.81
2023-01-29T20:02:21.380Z,100874.91
2023-01-29T20:05:24.165Z,100873.41
2023-01-29T20:08:26.453Z,100874.22
2023-01-29T20:11:34.326Z,100875.53
2023-01-29T20:14:36.663Z,100875.69
2023-01-29T20:17:39.376Z,100883.91
2023-01-29T20:20:42.833Z,100861.47
2023-01-29T20:23:46.786Z,100874.66
2023-01-29T20:26:49.619Z,100856.63
2023-01-29T20:29:52.806Z,100856.97
2023-01-29T20:32:55.124Z,100857.66
2023-01-29T20:35:59.703Z,100859.31
2023-01-29T20:39:06.942Z,100858.19
2023-01-29T20:42:09.243Z,100844.75
2023-01-29T20:45:12.340Z,100846.59
2023-01-29T20:48:14.625Z,100859.41
2023-01-29T20:51:21.432Z,100866.13
2023-01-29T20:54:23.711Z,100858.88
2023-01-29T20:57:26.183Z,100854.09
2023-01-29T21:00:28.524Z,100857.13
2023-01-29T21:03:30.870Z,100858.78
2023-01-29T21:06:33.287Z,100859.72
2023-01-29T21:09:35.667Z,100870.94
2023-01-29T21:12:38.069Z,100858.47
2023-01-29T21:15:42.438Z,100878.50
2023-01-29T21:18:44.707Z,100869.16
2023-01-29T21:21:47.007Z,100893.84
2023-01-29T21:24:49.369Z,100881.13
2023-01-29T21:27:51.694Z,100891.53
2023-01-29T21:31:08.229Z,100893.25
2023-01-29T21:34:10.842Z,100875.22
2023-01-29T21:37:13.143Z,100900.97
2023-01-29T21:40:15.964Z,100884.09
2023-01-29T21:43:18.744Z,100877.16
2023-01-29T21:46:21.073Z,100876.19
2023-01-29T21:49:23.935Z,100878.66
2023-01-29T21:52:26.314Z,100860.59
2023-01-29T21:55:29.568Z,100866.63
2023-01-29T21:58:32.307Z,100871.56
2023-01-29T22:01:38.114Z,100855.88
2023-01-29T22:04:43.969Z,100851.41
2023-01-29T22:07:46.527Z,100860.19
2023-01-29T22:10:58.905Z,100849.31
2023-01-29T22:14:01.414Z,100861.63
2023-01-29T22:17:04.099Z,100844.59
2023-01-29T22:20:10.704Z,100847.75
2023-01-29T22:23:13.094Z,100842.47
2023-01-29T22:26:15.790Z,100840.94
2023-01-29T22:29:18.265Z,100833.59
2023-01-29T22:32:20.650Z,100828.63
2023-01-29T22:35:22.980Z,100834.56
2023-01-29T22:38:25.829Z,100805.41
2023-01-29T22:41:28.494Z,100824.97
2023-01-29T22:44:31.356Z,100822.09
2023-01-29T22:47:33.817Z,100812.31
2023-01-29T22:50:36.147Z,100809.13
2023-01-29T22:54:04.667Z,100818.22
2023-01-29T22:57:10.217Z,100799.97
2023-01-29T23:00:19.406Z,100805.22
2023-01-29T23:03:22.048Z,100803.47
2023-01-29T23:06:24.513Z,100785.09
2023-01-29T23:09:27.467Z,100807.53
2023-01-29T23:12:29.989Z,100801.91
2023-01-29T23:15:32.392Z,100799.38
2023-01-29T23:18:35.465Z,100804.63
2023-01-29T23:21:38.351Z,100797.91
2023-01-29T23:24:41.091Z,100792.03
2023-01-29T23:27:43.419Z,100803.56
2023-01-29T23:30:47.925Z,100772.72
2023-01-29T23:33:50.651Z,100765.56
2023-01-29T23:36:52.984Z,100758.34
2023-01-29T23:39:55.319Z,100736.16
2023-01-29T23:42:57.649Z,100766.78
2023-01-29T23:46:00.317Z,100765.56
2023-01-29T23:49:03.202Z,100749.19
2023-01-29T23:52:05.912Z,100766.16
2023-01-29T23:55:08.535Z,100772.09
2023-01-29T23:58:11.268Z,100774.28
